sensor_id;sensor_type;location;lat;lon;timestamp;pressure;altitude;pressure_sealevel;temperature
20733;BMP180;10527;52.124;5.196;2022-07-01T00:02:04;101355.00;;;26.20
20733;BMP180;10527;52.124;5.196;2022-07-01T00:04:31;101364.00;;;26.20
20733;BMP180;10527;52.124;5.196;2022-07-01T00:06:58;101340.00;;;26.20
20733;BMP180;10527;52.124;5.196;2022-07-01T00:09:25;101328.00;;;26.20
20733;BMP180;10527;52.124;5.196;2022-07-01T00:11:53;101340.00;;;26.30
20733;BMP180;10527;52.124;5.196;2022-07-01T00:14:21;101346.00;;;26.30
20733;BMP180;10527;52.124;5.196;2022-07-01T00:16:50;101337.00;;;26.30
20733;BMP180;10527;52.124;5.196;2022-07-01T00:19:17;101338.00;;;26.40
20733;BMP180;10527;52.124;5.196;2022-07-01T00:21:45;101330.00;;;26.40
20733;BMP180;10527;52.124;5.196;2022-07-01T00:24:12;101344.00;;;26.40
20733;BMP180;10527;52.124;5.196;2022-07-01T00:26:39;101340.00;;;26.40
20733;BMP180;10527;52.124;5.196;2022-07-01T00:29:06;101344.00;;;26.40
20733;BMP180;10527;52.124;5.196;2022-07-01T00:31:33;101356.00;;;26.40
20733;BMP180;10527;52.124;5.196;2022-07-01T00:34:00;101368.00;;;26.40
20733;BMP180;10527;52.124;5.196;2022-07-01T00:36:27;101370.00;;;26.40
20733;BMP180;10527;52.124;5.196;2022-07-01T00:38:58;101372.00;;;26.40
20733;BMP180;10527;52.124;5.196;2022-07-01T00:41:25;101380.00;;;26.40
20733;BMP180;10527;52.124;5.196;2022-07-01T00:43:52;101385.00;;;26.40
20733;BMP180;10527;52.124;5.196;2022-07-01T00:46:23;101368.00;;;26.30
20733;BMP180;10527;52.124;5.196;2022-07-01T00:48:55;101367.00;;;26.30
20733;BMP180;10527;52.124;5.196;2022-07-01T00:51:23;101368.00;;;26.30
20733;BMP180;10527;52.124;5.196;2022-07-01T00:53:50;101376.00;;;26.20
20733;BMP180;10527;52.124;5.196;2022-07-01T00:56:18;101373.00;;;26.20
20733;BMP180;10527;52.124;5.196;2022-07-01T00:58:47;101377.00;;;26.20
20733;BMP180;10527;52.124;5.196;2022-07-01T01:01:14;101379.00;;;26.10
20733;BMP180;10527;52.124;5.196;2022-07-01T01:03:41;101371.00;;;26.10
20733;BMP180;10527;52.124;5.196;2022-07-01T01:06:09;101367.00;;;26.10
20733;BMP180;10527;52.124;5.196;2022-07-01T01:08:37;101358.00;;;26.00
20733;BMP180;10527;52.124;5.196;2022-07-01T01:11:04;101349.00;;;25.90
20733;BMP180;10527;52.124;5.196;2022-07-01T01:13:32;101341.00;;;25.80
20733;BMP180;10527;52.124;5.196;2022-07-01T01:15:58;101344.00;;;25.80
20733;BMP180;10527;52.124;5.196;2022-07-01T01:18:25;101340.00;;;25.70
20733;BMP180;10527;52.124;5.196;2022-07-01T01:20:54;101343.00;;;25.70
20733;BMP180;10527;52.124;5.196;2022-07-01T01:23:21;101347.00;;;25.70
20733;BMP180;10527;52.124;5.196;2022-07-01T01:25:48;101357.00;;;25.70
20733;BMP180;10527;52.124;5.196;2022-07-01T01:28:15;101365.00;;;25.70
20733;BMP180;10527;52.124;5.196;2022-07-01T01:30:42;101377.00;;;25.60
20733;BMP180;10527;52.124;5.196;2022-07-01T01:33:09;101380.00;;;25.60
20733;BMP180;10527;52.124;5.196;2022-07-01T01:35:38;101379.00;;;25.60
20733;BMP180;10527;52.124;5.196;2022-07-01T01:38:07;101388.00;;;25.60
20733;BMP180;10527;52.124;5.196;2022-07-01T01:40:34;101392.00;;;25.60
20733;BMP180;10527;52.124;5.196;2022-07-01T01:43:01;101396.00;;;25.60
20733;BMP180;10527;52.124;5.196;2022-07-01T01:45:28;101404.00;;;25.60
20733;BMP180;10527;52.124;5.196;2022-07-01T01:47:55;101396.00;;;25.60
20733;BMP180;10527;52.124;5.196;2022-07-01T01:50:22;101396.00;;;25.60
20733;BMP180;10527;52.124;5.196;2022-07-01T01:52:49;101388.00;;;25.60
20733;BMP180;10527;52.124;5.196;2022-07-01T01:55:16;101394.00;;;25.60
20733;BMP180;10527;52.124;5.196;2022-07-01T01:57:43;101386.00;;;25.60
20733;BMP180;10527;52.124;5.196;2022-07-01T02:00:10;101386.00;;;25.50
20733;BMP180;10527;52.124;5.196;2022-07-01T02:02:37;101390.00;;;25.60
20733;BMP180;10527;52.124;5.196;2022-07-01T02:05:10;101401.00;;;25.60
20733;BMP180;10527;52.124;5.196;2022-07-01T02:07:38;101398.00;;;25.50
20733;BMP180;10527;52.124;5.196;2022-07-01T02:10:07;101395.00;;;25.50
20733;BMP180;10527;52.124;5.196;2022-07-01T02:12:34;101397.00;;;25.50
20733;BMP180;10527;52.124;5.196;2022-07-01T02:15:00;101389.00;;;25.40
20733;BMP180;10527;52.124;5.196;2022-07-01T02:17:28;101384.00;;;25.40
20733;BMP180;10527;52.124;5.196;2022-07-01T02:19:57;101395.00;;;25.40
20733;BMP180;10527;52.124;5.196;2022-07-01T02:22:24;101400.00;;;25.40
20733;BMP180;10527;52.124;5.196;2022-07-01T02:24:50;101387.00;;;25.40
20733;BMP180;10527;52.124;5.196;2022-07-01T02:27:17;101386.00;;;25.40
20733;BMP180;10527;52.124;5.196;2022-07-01T02:29:46;101393.00;;;25.40
20733;BMP180;10527;52.124;5.196;2022-07-01T02:32:13;101400.00;;;25.30
20733;BMP180;10527;52.124;5.196;2022-07-01T02:34:40;101396.00;;;25.30
20733;BMP180;10527;52.124;5.196;2022-07-01T02:37:07;101395.00;;;25.30
20733;BMP180;10527;52.124;5.196;2022-07-01T02:39:35;101404.00;;;25.30
20733;BMP180;10527;52.124;5.196;2022-07-01T02:42:02;101410.00;;;25.30
20733;BMP180;10527;52.124;5.196;2022-07-01T02:44:47;101414.00;;;25.30
20733;BMP180;10527;52.124;5.196;2022-07-01T02:47:14;101420.00;;;25.30
20733;BMP180;10527;52.124;5.196;2022-07-01T02:49:41;101424.00;;;25.30
20733;BMP180;10527;52.124;5.196;2022-07-01T02:52:08;101426.00;;;25.30
20733;BMP180;10527;52.124;5.196;2022-07-01T02:54:36;101431.00;;;25.40
20733;BMP180;10527;52.124;5.196;2022-07-01T02:57:04;101430.00;;;25.40
20733;BMP180;10527;52.124;5.196;2022-07-01T02:59:30;101425.00;;;25.40
20733;BMP180;10527;52.124;5.196;2022-07-01T03:01:57;101399.00;;;25.40
20733;BMP180;10527;52.124;5.196;2022-07-01T03:04:29;101390.00;;;25.40
20733;BMP180;10527;52.124;5.196;2022-07-01T03:06:55;101398.00;;;25.40
20733;BMP180;10527;52.124;5.196;2022-07-01T03:09:23;101410.00;;;25.40
20733;BMP180;10527;52.124;5.196;2022-07-01T03:11:50;101397.00;;;25.40
20733;BMP180;10527;52.124;5.196;2022-07-01T03:14:17;101410.00;;;25.40
20733;BMP180;10527;52.124;5.196;2022-07-01T03:16:44;101406.00;;;25.40
20733;BMP180;10527;52.124;5.196;2022-07-01T03:19:14;101401.00;;;25.40
20733;BMP180;10527;52.124;5.196;2022-07-01T03:21:41;101391.00;;;25.40
20733;BMP180;10527;52.124;5.196;2022-07-01T03:24:08;101394.00;;;25.30
20733;BMP180;10527;52.124;5.196;2022-07-01T03:26:35;101397.00;;;25.30
20733;BMP180;10527;52.124;5.196;2022-07-01T03:29:04;101399.00;;;25.30
20733;BMP180;10527;52.124;5.196;2022-07-01T03:31:31;101396.00;;;25.30
20733;BMP180;10527;52.124;5.196;2022-07-01T03:33:58;101393.00;;;25.20
20733;BMP180;10527;52.124;5.196;2022-07-01T03:36:25;101400.00;;;25.20
20733;BMP180;10527;52.124;5.196;2022-07-01T03:38:52;101401.00;;;25.20
20733;BMP180;10527;52.124;5.196;2022-07-01T03:41:18;101404.00;;;25.10
20733;BMP180;10527;52.124;5.196;2022-07-01T03:43:45;101408.00;;;25.10
20733;BMP180;10527;52.124;5.196;2022-07-01T03:46:12;101414.00;;;25.10
20733;BMP180;10527;52.124;5.196;2022-07-01T03:48:39;101406.00;;;25.10
20733;BMP180;10527;52.124;5.196;2022-07-01T03:51:08;101406.00;;;25.10
20733;BMP180;10527;52.124;5.196;2022-07-01T03:53:35;101416.00;;;25.00
20733;BMP180;10527;52.124;5.196;2022-07-01T03:56:21;101424.00;;;25.10
20733;BMP180;10527;52.124;5.196;2022-07-01T03:58:47;101433.00;;;25.00
20733;BMP180;10527;52.124;5.196;2022-07-01T04:01:14;101441.00;;;25.00
20733;BMP180;10527;52.124;5.196;2022-07-01T04:03:41;101439.00;;;25.00
20733;BMP180;10527;52.124;5.196;2022-07-01T04:06:08;101447.00;;;25.00
20733;BMP180;10527;52.124;5.196;2022-07-01T04:08:36;101448.00;;;25.00
20733;BMP180;10527;52.124;5.196;2022-07-01T04:11:02;101449.00;;;25.00
20733;BMP180;10527;52.124;5.196;2022-07-01T04:13:31;101451.00;;;25.10
20733;BMP180;10527;52.124;5.196;2022-07-01T04:15:59;101454.00;;;25.00
20733;BMP180;10527;52.124;5.196;2022-07-01T04:18:28;101456.00;;;25.10
20733;BMP180;10527;52.124;5.196;2022-07-01T04:20:56;101463.00;;;25.00
20733;BMP180;10527;52.124;5.196;2022-07-01T04:23:41;101461.00;;;25.00
20733;BMP180;10527;52.124;5.196;2022-07-01T04:26:09;101466.00;;;25.00
20733;BMP180;10527;52.124;5.196;2022-07-01T04:28:55;101474.00;;;25.10
20733;BMP180;10527;52.124;5.196;2022-07-01T04:31:22;101475.00;;;25.10
20733;BMP180;10527;52.124;5.196;2022-07-01T04:33:50;101473.00;;;25.00
20733;BMP180;10527;52.124;5.196;2022-07-01T04:36:17;101481.00;;;25.10
20733;BMP180;10527;52.124;5.196;2022-07-01T04:38:44;101473.00;;;25.10
20733;BMP180;10527;52.124;5.196;2022-07-01T04:41:11;101474.00;;;25.10
20733;BMP180;10527;52.124;5.196;2022-07-01T04:43:57;101482.00;;;25.10
20733;BMP180;10527;52.124;5.196;2022-07-01T04:46:24;101477.00;;;25.10
20733;BMP180;10527;52.124;5.196;2022-07-01T04:48:51;101481.00;;;25.10
20733;BMP180;10527;52.124;5.196;2022-07-01T04:51:18;101475.00;;;25.10
20733;BMP180;10527;52.124;5.196;2022-07-01T04:53:45;101475.00;;;25.00
20733;BMP180;10527;52.124;5.196;2022-07-01T04:56:12;101474.00;;;25.00
20733;BMP180;10527;52.124;5.196;2022-07-01T04:58:39;101467.00;;;25.00
20733;BMP180;10527;52.124;5.196;2022-07-01T05:01:05;101476.00;;;25.10
20733;BMP180;10527;52.124;5.196;2022-07-01T05:03:32;101476.00;;;25.10
20733;BMP180;10527;52.124;5.196;2022-07-01T05:06:00;101473.00;;;25.10
20733;BMP180;10527;52.124;5.196;2022-07-01T05:08:27;101478.00;;;25.10
20733;BMP180;10527;52.124;5.196;2022-07-01T05:10:55;101487.00;;;25.10
20733;BMP180;10527;52.124;5.196;2022-07-01T05:13:22;101493.00;;;25.10
20733;BMP180;10527;52.124;5.196;2022-07-01T05:15:49;101489.00;;;25.10
20733;BMP180;10527;52.124;5.196;2022-07-01T05:18:16;101484.00;;;25.10
20733;BMP180;10527;52.124;5.196;2022-07-01T05:21:01;101481.00;;;25.10
20733;BMP180;10527;52.124;5.196;2022-07-01T05:24:05;101483.00;;;25.10
20733;BMP180;10527;52.124;5.196;2022-07-01T05:26:35;101479.00;;;25.10
20733;BMP180;10527;52.124;5.196;2022-07-01T05:29:02;101473.00;;;25.10
20733;BMP180;10527;52.124;5.196;2022-07-01T05:31:44;101486.00;;;25.10
20733;BMP180;10527;52.124;5.196;2022-07-01T05:34:11;101484.00;;;25.10
20733;BMP180;10527;52.124;5.196;2022-07-01T05:36:38;101483.00;;;25.10
20733;BMP180;10527;52.124;5.196;2022-07-01T05:39:05;101496.00;;;25.10
20733;BMP180;10527;52.124;5.196;2022-07-01T05:41:32;101492.00;;;25.10
20733;BMP180;10527;52.124;5.196;2022-07-01T05:43:59;101493.00;;;25.10
20733;BMP180;10527;52.124;5.196;2022-07-01T05:46:26;101491.00;;;25.20
20733;BMP180;10527;52.124;5.196;2022-07-01T05:48:53;101494.00;;;25.20
20733;BMP180;10527;52.124;5.196;2022-07-01T05:51:20;101490.00;;;25.20
20733;BMP180;10527;52.124;5.196;2022-07-01T05:53:48;101485.00;;;25.30
20733;BMP180;10527;52.124;5.196;2022-07-01T05:56:14;101488.00;;;25.30
20733;BMP180;10527;52.124;5.196;2022-07-01T05:58:42;101496.00;;;25.40
20733;BMP180;10527;52.124;5.196;2022-07-01T06:01:09;101493.00;;;25.40
20733;BMP180;10527;52.124;5.196;2022-07-01T06:03:36;101487.00;;;25.50
20733;BMP180;10527;52.124;5.196;2022-07-01T06:06:04;101496.00;;;25.50
20733;BMP180;10527;52.124;5.196;2022-07-01T06:08:31;101489.00;;;25.50
20733;BMP180;10527;52.124;5.196;2022-07-01T06:10:58;101482.00;;;25.50
20733;BMP180;10527;52.124;5.196;2022-07-01T06:13:25;101485.00;;;25.50
20733;BMP180;10527;52.124;5.196;2022-07-01T06:15:53;101494.00;;;25.50
20733;BMP180;10527;52.124;5.196;2022-07-01T06:18:20;101484.00;;;25.60
20733;BMP180;10527;52.124;5.196;2022-07-01T06:20:47;101493.00;;;25.60
20733;BMP180;10527;52.124;5.196;2022-07-01T06:23:13;101494.00;;;25.60
20733;BMP180;10527;52.124;5.196;2022-07-01T06:25:40;101493.00;;;25.70
20733;BMP180;10527;52.124;5.196;2022-07-01T06:28:07;101483.00;;;25.70
20733;BMP180;10527;52.124;5.196;2022-07-01T06:30:34;101477.00;;;25.70
20733;BMP180;10527;52.124;5.196;2022-07-01T06:33:00;101491.00;;;25.70
20733;BMP180;10527;52.124;5.196;2022-07-01T06:35:27;101477.00;;;25.70
20733;BMP180;10527;52.124;5.196;2022-07-01T06:37:54;101474.00;;;25.70
20733;BMP180;10527;52.124;5.196;2022-07-01T06:40:27;101479.00;;;25.70
20733;BMP180;10527;52.124;5.196;2022-07-01T06:42:54;101473.00;;;25.70
20733;BMP180;10527;52.124;5.196;2022-07-01T06:45:25;101474.00;;;25.70
20733;BMP180;10527;52.124;5.196;2022-07-01T06:47:53;101480.00;;;25.70
20733;BMP180;10527;52.124;5.196;2022-07-01T06:50:20;101482.00;;;25.80
20733;BMP180;10527;52.124;5.196;2022-07-01T06:52:47;101471.00;;;25.80
20733;BMP180;10527;52.124;5.196;2022-07-01T06:55:14;101479.00;;;25.80
20733;BMP180;10527;52.124;5.196;2022-07-01T06:57:41;101481.00;;;25.90
20733;BMP180;10527;52.124;5.196;2022-07-01T07:00:10;101485.00;;;25.90
20733;BMP180;10527;52.124;5.196;2022-07-01T07:02:37;101476.00;;;25.90
20733;BMP180;10527;52.124;5.196;2022-07-01T07:05:04;101476.00;;;26.00
20733;BMP180;10527;52.124;5.196;2022-07-01T07:07:35;101481.00;;;26.00
20733;BMP180;10527;52.124;5.196;2022-07-01T07:10:02;101490.00;;;26.10
20733;BMP180;10527;52.124;5.196;2022-07-01T07:12:29;101496.00;;;26.10
20733;BMP180;10527;52.124;5.196;2022-07-01T07:14:56;101496.00;;;26.20
20733;BMP180;10527;52.124;5.196;2022-07-01T07:17:24;101498.00;;;26.30
20733;BMP180;10527;52.124;5.196;2022-07-01T07:19:51;101507.00;;;26.40
20733;BMP180;10527;52.124;5.196;2022-07-01T07:22:20;101505.00;;;26.40
20733;BMP180;10527;52.124;5.196;2022-07-01T07:24:47;101512.00;;;26.50
20733;BMP180;10527;52.124;5.196;2022-07-01T07:27:14;101522.00;;;26.50
20733;BMP180;10527;52.124;5.196;2022-07-01T07:29:41;101517.00;;;26.50
20733;BMP180;10527;52.124;5.196;2022-07-01T07:32:12;101520.00;;;26.50
20733;BMP180;10527;52.124;5.196;2022-07-01T07:34:39;101526.00;;;26.60
20733;BMP180;10527;52.124;5.196;2022-07-01T07:37:07;101530.00;;;26.70
20733;BMP180;10527;52.124;5.196;2022-07-01T07:39:36;101542.00;;;26.70
20733;BMP180;10527;52.124;5.196;2022-07-01T07:42:03;101545.00;;;26.90
20733;BMP180;10527;52.124;5.196;2022-07-01T07:44:31;101540.00;;;27.00
20733;BMP180;10527;52.124;5.196;2022-07-01T07:46:59;101530.00;;;27.10
20733;BMP180;10527;52.124;5.196;2022-07-01T07:49:26;101523.00;;;27.20
20733;BMP180;10527;52.124;5.196;2022-07-01T07:51:54;101529.00;;;27.20
20733;BMP180;10527;52.124;5.196;2022-07-01T07:54:21;101531.00;;;27.30
20733;BMP180;10527;52.124;5.196;2022-07-01T07:56:48;101533.00;;;27.50
20733;BMP180;10527;52.124;5.196;2022-07-01T07:59:17;101541.00;;;27.70
20733;BMP180;10527;52.124;5.196;2022-07-01T08:01:44;101529.00;;;27.80
20733;BMP180;10527;52.124;5.196;2022-07-01T08:04:11;101535.00;;;28.00
20733;BMP180;10527;52.124;5.196;2022-07-01T08:06:38;101539.00;;;28.00
20733;BMP180;10527;52.124;5.196;2022-07-01T08:09:09;101542.00;;;28.10
20733;BMP180;10527;52.124;5.196;2022-07-01T08:11:37;101540.00;;;28.20
20733;BMP180;10527;52.124;5.196;2022-07-01T08:14:04;101558.00;;;28.20
20733;BMP180;10527;52.124;5.196;2022-07-01T08:16:31;101547.00;;;28.20
20733;BMP180;10527;52.124;5.196;2022-07-01T08:18:58;101548.00;;;28.30
20733;BMP180;10527;52.124;5.196;2022-07-01T08:21:25;101551.00;;;28.30
20733;BMP180;10527;52.124;5.196;2022-07-01T08:23:52;101555.00;;;28.50
20733;BMP180;10527;52.124;5.196;2022-07-01T08:26:18;101566.00;;;28.50
20733;BMP180;10527;52.124;5.196;2022-07-01T08:28:45;101557.00;;;28.60
20733;BMP180;10527;52.124;5.196;2022-07-01T08:31:12;101564.00;;;28.70
20733;BMP180;10527;52.124;5.196;2022-07-01T08:33:41;101562.00;;;28.80
20733;BMP180;10527;52.124;5.196;2022-07-01T08:36:09;101561.00;;;28.90
20733;BMP180;10527;52.124;5.196;2022-07-01T08:38:37;101582.00;;;29.10
20733;BMP180;10527;52.124;5.196;2022-07-01T08:41:04;101576.00;;;29.30
20733;BMP180;10527;52.124;5.196;2022-07-01T08:43:31;101571.00;;;29.40
20733;BMP180;10527;52.124;5.196;2022-07-01T08:46:00;101576.00;;;29.40
20733;BMP180;10527;52.124;5.196;2022-07-01T08:48:30;101576.00;;;29.40
20733;BMP180;10527;52.124;5.196;2022-07-01T08:50:57;101582.00;;;29.40
20733;BMP180;10527;52.124;5.196;2022-07-01T08:53:24;101586.00;;;29.40
20733;BMP180;10527;52.124;5.196;2022-07-01T08:55:51;101585.00;;;29.40
20733;BMP180;10527;52.124;5.196;2022-07-01T08:58:37;101593.00;;;29.50
20733;BMP180;10527;52.124;5.196;2022-07-01T09:01:25;101598.00;;;29.60
20733;BMP180;10527;52.124;5.196;2022-07-01T09:03:56;101600.00;;;29.70
20733;BMP180;10527;52.124;5.196;2022-07-01T09:06:27;101600.00;;;29.80
20733;BMP180;10527;52.124;5.196;2022-07-01T09:08:55;101603.00;;;29.90
20733;BMP180;10527;52.124;5.196;2022-07-01T09:11:25;101623.00;;;30.10
20733;BMP180;10527;52.124;5.196;2022-07-01T09:14:09;101599.00;;;30.20
20733;BMP180;10527;52.124;5.196;2022-07-01T09:16:45;101604.00;;;30.20
20733;BMP180;10527;52.124;5.196;2022-07-01T09:19:14;101596.00;;;30.20
20733;BMP180;10527;52.124;5.196;2022-07-01T09:21:42;101606.00;;;30.20
20733;BMP180;10527;52.124;5.196;2022-07-01T09:24:36;101601.00;;;30.30
20733;BMP180;10527;52.124;5.196;2022-07-01T09:27:09;101613.00;;;30.30
20733;BMP180;10527;52.124;5.196;2022-07-01T09:29:42;101616.00;;;30.30
20733;BMP180;10527;52.124;5.196;2022-07-01T09:32:11;101601.00;;;30.30
20733;BMP180;10527;52.124;5.196;2022-07-01T09:34:45;101600.00;;;30.30
20733;BMP180;10527;52.124;5.196;2022-07-01T09:37:22;101603.00;;;30.40
20733;BMP180;10527;52.124;5.196;2022-07-01T09:39:53;101609.00;;;30.60
20733;BMP180;10527;52.124;5.196;2022-07-01T09:42:23;101600.00;;;30.70
20733;BMP180;10527;52.124;5.196;2022-07-01T09:45:06;101615.00;;;30.80
20733;BMP180;10527;52.124;5.196;2022-07-01T09:47:36;101621.00;;;30.90
20733;BMP180;10527;52.124;5.196;2022-07-01T09:50:04;101625.00;;;31.00
20733;BMP180;10527;52.124;5.196;2022-07-01T09:52:32;101616.00;;;31.10
20733;BMP180;10527;52.124;5.196;2022-07-01T09:55:04;101619.00;;;31.10
20733;BMP180;10527;52.124;5.196;2022-07-01T09:57:31;101627.00;;;31.10
20733;BMP180;10527;52.124;5.196;2022-07-01T09:59:58;101630.00;;;31.10
20733;BMP180;10527;52.124;5.196;2022-07-01T10:02:27;101639.00;;;31.10
20733;BMP180;10527;52.124;5.196;2022-07-01T10:05:09;101630.00;;;31.00
20733;BMP180;10527;52.124;5.196;2022-07-01T10:12:16;101622.00;;;30.80
20733;BMP180;10527;52.124;5.196;2022-07-01T10:14:21;101645.00;;;30.80
20733;BMP180;10527;52.124;5.196;2022-07-01T10:16:48;101631.00;;;30.80
20733;BMP180;10527;52.124;5.196;2022-07-01T10:19:25;101638.00;;;30.80
20733;BMP180;10527;52.124;5.196;2022-07-01T10:21:55;101647.00;;;30.80
20733;BMP180;10527;52.124;5.196;2022-07-01T10:24:26;101643.00;;;30.80
20733;BMP180;10527;52.124;5.196;2022-07-01T10:27:00;101647.00;;;30.90
20733;BMP180;10527;52.124;5.196;2022-07-01T10:29:37;101649.00;;;31.00
20733;BMP180;10527;52.124;5.196;2022-07-01T10:32:10;101649.00;;;31.00
20733;BMP180;10527;52.124;5.196;2022-07-01T10:34:41;101658.00;;;31.10
20733;BMP180;10527;52.124;5.196;2022-07-01T10:37:11;101659.00;;;31.10
20733;BMP180;10527;52.124;5.196;2022-07-01T10:40:05;101646.00;;;31.10
20733;BMP180;10527;52.124;5.196;2022-07-01T10:42:58;101653.00;;;31.10
20733;BMP180;10527;52.124;5.196;2022-07-01T10:45:44;101641.00;;;31.00
20733;BMP180;10527;52.124;5.196;2022-07-01T10:48:23;101656.00;;;31.10
20733;BMP180;10527;52.124;5.196;2022-07-01T10:50:52;101663.00;;;31.00
20733;BMP180;10527;52.124;5.196;2022-07-01T10:53:20;101661.00;;;31.10
20733;BMP180;10527;52.124;5.196;2022-07-01T10:55:51;101668.00;;;31.10
20733;BMP180;10527;52.124;5.196;2022-07-01T10:58:38;101671.00;;;31.00
20733;BMP180;10527;52.124;5.196;2022-07-01T11:01:05;101657.00;;;31.00
20733;BMP180;10527;52.124;5.196;2022-07-01T11:03:37;101659.00;;;31.00
20733;BMP180;10527;52.124;5.196;2022-07-01T11:06:07;101654.00;;;31.10
20733;BMP180;10527;52.124;5.196;2022-07-01T11:08:34;101659.00;;;31.10
20733;BMP180;10527;52.124;5.196;2022-07-01T11:11:02;101658.00;;;31.10
20733;BMP180;10527;52.124;5.196;2022-07-01T11:13:32;101665.00;;;31.10
20733;BMP180;10527;52.124;5.196;2022-07-01T11:16:00;101654.00;;;31.00
20733;BMP180;10527;52.124;5.196;2022-07-01T11:18:29;101666.00;;;31.00
20733;BMP180;10527;52.124;5.196;2022-07-01T11:21:08;101659.00;;;31.10
20733;BMP180;10527;52.124;5.196;2022-07-01T11:23:37;101663.00;;;31.10
20733;BMP180;10527;52.124;5.196;2022-07-01T11:26:22;101665.00;;;31.20
20733;BMP180;10527;52.124;5.196;2022-07-01T11:28:49;101665.00;;;31.20
20733;BMP180;10527;52.124;5.196;2022-07-01T11:31:27;101665.00;;;31.20
20733;BMP180;10527;52.124;5.196;2022-07-01T11:33:55;101681.00;;;31.20
20733;BMP180;10527;52.124;5.196;2022-07-01T11:36:22;101665.00;;;31.10
20733;BMP180;10527;52.124;5.196;2022-07-01T11:39:07;101661.00;;;31.10
20733;BMP180;10527;52.124;5.196;2022-07-01T11:42:09;101663.00;;;31.10
20733;BMP180;10527;52.124;5.196;2022-07-01T11:44:42;101667.00;;;31.10
20733;BMP180;10527;52.124;5.196;2022-07-01T11:47:12;101662.00;;;31.20
20733;BMP180;10527;52.124;5.196;2022-07-01T11:49:47;101652.00;;;31.30
20733;BMP180;10527;52.124;5.196;2022-07-01T11:52:20;101646.00;;;31.40
20733;BMP180;10527;52.124;5.196;2022-07-01T11:54:50;101638.00;;;31.40
20733;BMP180;10527;52.124;5.196;2022-07-01T11:57:21;101642.00;;;31.50
20733;BMP180;10527;52.124;5.196;2022-07-01T11:59:54;101639.00;;;31.60
20733;BMP180;10527;52.124;5.196;2022-07-01T12:02:23;101628.00;;;31.70
20733;BMP180;10527;52.124;5.196;2022-07-01T12:04:51;101627.00;;;31.70
20733;BMP180;10527;52.124;5.196;2022-07-01T12:07:20;101635.00;;;31.70
20733;BMP180;10527;52.124;5.196;2022-07-01T12:09:52;101653.00;;;31.70
20733;BMP180;10527;52.124;5.196;2022-07-01T12:12:22;101645.00;;;31.70
20733;BMP180;10527;52.124;5.196;2022-07-01T12:14:59;101646.00;;;31.70
20733;BMP180;10527;52.124;5.196;2022-07-01T12:17:27;101655.00;;;31.70
20733;BMP180;10527;52.124;5.196;2022-07-01T12:19:55;101645.00;;;31.60
20733;BMP180;10527;52.124;5.196;2022-07-01T12:22:26;101646.00;;;31.60
20733;BMP180;10527;52.124;5.196;2022-07-01T12:25:10;101648.00;;;31.70
20733;BMP180;10527;52.124;5.196;2022-07-01T12:27:39;101653.00;;;31.70
20733;BMP180;10527;52.124;5.196;2022-07-01T12:30:10;101658.00;;;31.80
20733;BMP180;10527;52.124;5.196;2022-07-01T12:32:39;101660.00;;;31.80
20733;BMP180;10527;52.124;5.196;2022-07-01T12:35:08;101660.00;;;31.80
20733;BMP180;10527;52.124;5.196;2022-07-01T12:37:54;101676.00;;;31.70
20733;BMP180;10527;52.124;5.196;2022-07-01T12:40:25;101672.00;;;31.70
20733;BMP180;10527;52.124;5.196;2022-07-01T12:42:54;101671.00;;;31.60
20733;BMP180;10527;52.124;5.196;2022-07-01T12:45:25;101676.00;;;31.50
20733;BMP180;10527;52.124;5.196;2022-07-01T12:47:56;101685.00;;;31.30
20733;BMP180;10527;52.124;5.196;2022-07-01T12:50:30;101689.00;;;31.10
20733;BMP180;10527;52.124;5.196;2022-07-01T12:53:08;101695.00;;;30.90
20733;BMP180;10527;52.124;5.196;2022-07-01T12:55:57;101697.00;;;30.80
20733;BMP180;10527;52.124;5.196;2022-07-01T12:58:26;101705.00;;;30.60
20733;BMP180;10527;52.124;5.196;2022-07-01T13:00:57;101708.00;;;30.40
20733;BMP180;10527;52.124;5.196;2022-07-01T13:03:27;101711.00;;;30.20
20733;BMP180;10527;52.124;5.196;2022-07-01T13:05:56;101711.00;;;30.10
20733;BMP180;10527;52.124;5.196;2022-07-01T13:08:23;101705.00;;;30.00
20733;BMP180;10527;52.124;5.196;2022-07-01T13:10:50;101710.00;;;29.90
20733;BMP180;10527;52.124;5.196;2022-07-01T13:13:18;101713.00;;;29.80
20733;BMP180;10527;52.124;5.196;2022-07-01T13:15:46;101714.00;;;29.70
20733;BMP180;10527;52.124;5.196;2022-07-01T13:18:13;101717.00;;;29.70
20733;BMP180;10527;52.124;5.196;2022-07-01T13:20:43;101727.00;;;29.70
20733;BMP180;10527;52.124;5.196;2022-07-01T13:23:11;101730.00;;;29.70
20733;BMP180;10527;52.124;5.196;2022-07-01T13:25:38;101723.00;;;29.70
20733;BMP180;10527;52.124;5.196;2022-07-01T13:28:06;101731.00;;;29.90
20733;BMP180;10527;52.124;5.196;2022-07-01T13:30:33;101721.00;;;30.00
20733;BMP180;10527;52.124;5.196;2022-07-01T13:33:02;101729.00;;;30.10
20733;BMP180;10527;52.124;5.196;2022-07-01T13:35:29;101721.00;;;30.20
20733;BMP180;10527;52.124;5.196;2022-07-01T13:37:56;101738.00;;;30.30
20733;BMP180;10527;52.124;5.196;2022-07-01T13:40:24;101727.00;;;30.30
20733;BMP180;10527;52.124;5.196;2022-07-01T13:42:51;101730.00;;;30.40
20733;BMP180;10527;52.124;5.196;2022-07-01T13:45:18;101719.00;;;30.50
20733;BMP180;10527;52.124;5.196;2022-07-01T13:47:45;101725.00;;;30.50
20733;BMP180;10527;52.124;5.196;2022-07-01T13:50:12;101725.00;;;30.50
20733;BMP180;10527;52.124;5.196;2022-07-01T13:52:39;101734.00;;;30.60
20733;BMP180;10527;52.124;5.196;2022-07-01T13:55:13;101725.00;;;30.70
20733;BMP180;10527;52.124;5.196;2022-07-01T13:57:40;101727.00;;;30.80
20733;BMP180;10527;52.124;5.196;2022-07-01T14:00:07;101736.00;;;30.80
20733;BMP180;10527;52.124;5.196;2022-07-01T14:02:35;101735.00;;;30.90
20733;BMP180;10527;52.124;5.196;2022-07-01T14:05:02;101743.00;;;30.90
20733;BMP180;10527;52.124;5.196;2022-07-01T14:07:30;101743.00;;;31.00
20733;BMP180;10527;52.124;5.196;2022-07-01T14:09:57;101740.00;;;31.00
20733;BMP180;10527;52.124;5.196;2022-07-01T14:12:24;101758.00;;;30.90
20733;BMP180;10527;52.124;5.196;2022-07-01T14:14:57;101756.00;;;30.90